Time;durP1;ratioP1;P1;durP2;ratioP2;P2;SDS_P1;SDS_P2;PMS_P1;PMS_P2;Temp;Humidity;BMP_temperature;BMP_pressure;BME280_temperature;BME280_humidity;BME280_pressure;Samples;Min_cycle;Max_cycle;Signal;HPM_P1;HPM_P2
2023/11/07 00:02:38;;;;;;;;;;;;;;;10.38;65.91;97612.94;5092639;28;19998;-76
2023/11/07 00:05:27;;;;;;;;;;;;;;;10.21;66.44;97602.00;5098476;28;19924;-76
2023/11/07 00:08:17;;;;;;;;;;;;;;;10.17;66.81;97614.63;5108985;28;19969;-76
2023/11/07 00:11:05;;;;;;;;;;;;;;;10.23;66.24;97606.06;5106278;28;19924;-76
2023/11/07 00:13:53;;;;;;;;;;;;;;;10.05;66.63;97617.94;5103404;28;19930;-76
2023/11/07 00:16:43;;;;;;;;;;;;;;;10.21;66.43;97613.66;5086595;28;19978;-76
2023/11/07 00:19:30;;;;;;;;;;;;;;;10.33;66.15;97617.72;5084468;28;19986;-76
2023/11/07 00:22:22;;;;;;;;;;;;;;;10.27;66.19;97618.97;5091562;28;20005;-76
2023/11/07 00:25:11;;;;;;;;;;;;;;;10.16;66.61;97621.16;5091597;28;20080;-76
2023/11/07 00:28:00;;;;;;;;;;;;;;;10.20;66.62;97630.28;5090061;28;19930;-76
2023/11/07 00:30:48;;;;;;;;;;;;;;;10.31;66.45;97628.91;5092187;28;19935;-76
2023/11/07 00:33:37;;;;;;;;;;;;;;;10.13;66.54;97629.97;5088485;28;19924;-76
2023/11/07 00:36:26;;;;;;;;;;;;;;;10.11;66.76;97632.97;5089176;28;20011;-76
2023/11/07 00:39:15;;;;;;;;;;;;;;;10.17;66.49;97630.91;5091023;28;20078;-76
2023/11/07 00:42:04;;;;;;;;;;;;;;;10.07;66.73;97625.78;5090460;28;19924;-76
2023/11/07 00:44:53;;;;;;;;;;;;;;;9.80;67.52;97633.03;5090120;28;19931;-76
2023/11/07 00:47:41;;;;;;;;;;;;;;;9.85;67.17;97630.16;5089456;28;20080;-76
2023/11/07 00:50:31;;;;;;;;;;;;;;;10.11;66.43;97629.44;5094930;28;19924;-76
2023/11/07 00:53:19;;;;;;;;;;;;;;;10.13;66.21;97635.38;5094620;28;19963;-76
2023/11/07 00:56:08;;;;;;;;;;;;;;;9.95;66.73;97632.59;5094945;28;19924;-76
2023/11/07 00:58:56;;;;;;;;;;;;;;;10.08;66.31;97630.91;5094982;28;20015;-76
2023/11/07 01:01:44;;;;;;;;;;;;;;;10.05;66.62;97641.56;5092606;28;19931;-76
2023/11/07 01:04:32;;;;;;;;;;;;;;;10.01;66.49;97640.59;5094364;28;19989;-76
2023/11/07 01:07:22;;;;;;;;;;;;;;;10.08;66.35;97632.81;5089536;28;19931;-76
2023/11/07 01:10:10;;;;;;;;;;;;;;;10.07;66.25;97642.06;5087763;28;20284;-76
2023/11/07 01:12:58;;;;;;;;;;;;;;;9.87;66.89;97649.66;5092218;28;19924;-76
2023/11/07 01:15:46;;;;;;;;;;;;;;;9.76;67.41;97642.09;5101964;28;20287;-76
2023/11/07 01:18:34;;;;;;;;;;;;;;;9.79;67.05;97652.31;5092186;28;19932;-76
2023/11/07 01:21:23;;;;;;;;;;;;;;;9.93;66.55;97648.41;5092838;22;20967;-77
2023/11/07 01:24:14;;;;;;;;;;;;;;;9.53;67.92;97650.25;5057159;28;19925;-79
2023/11/07 01:27:03;;;;;;;;;;;;;;;9.71;67.17;97657.41;5077831;28;19928;-78
2023/11/07 01:29:51;;;;;;;;;;;;;;;9.76;67.07;97653.75;5069332;28;20024;-78
2023/11/07 01:32:42;;;;;;;;;;;;;;;9.54;67.74;97651.88;5069877;28;20013;-77
2023/11/07 01:35:32;;;;;;;;;;;;;;;9.59;67.65;97650.97;5052103;28;19933;-78
2023/11/07 01:38:20;;;;;;;;;;;;;;;9.57;67.67;97655.88;5059479;28;19928;-78
2023/11/07 01:41:10;;;;;;;;;;;;;;;9.41;68.25;97652.75;5055747;28;20412;-78
2023/11/07 01:43:58;;;;;;;;;;;;;;;9.28;68.92;97653.63;5052046;28;20406;-78
2023/11/07 01:46:47;;;;;;;;;;;;;;;9.52;68.09;97658.72;5050205;28;19932;-77
2023/11/07 01:49:35;;;;;;;;;;;;;;;9.61;67.90;97648.72;5053032;28;19948;-78
2023/11/07 01:52:23;;;;;;;;;;;;;;;9.72;67.33;97644.63;5053050;28;20296;-77
2023/11/07 01:55:13;;;;;;;;;;;;;;;9.67;67.66;97644.75;5062424;28;20350;-77
2023/11/07 01:58:03;;;;;;;;;;;;;;;9.84;66.80;97647.56;5060158;28;19925;-78
2023/11/07 02:00:53;;;;;;;;;;;;;;;9.64;66.96;97650.81;5043187;28;20418;-79
2023/11/07 02:03:41;;;;;;;;;;;;;;;9.77;66.72;97644.50;5048706;28;19932;-79
2023/11/07 02:06:30;;;;;;;;;;;;;;;9.97;66.19;97649.38;5060644;28;20379;-78
2023/11/07 02:09:20;;;;;;;;;;;;;;;10.10;65.71;97646.84;5051511;28;19925;-78
2023/11/07 02:12:09;;;;;;;;;;;;;;;10.07;65.82;97648.31;5052997;28;19937;-78
2023/11/07 02:14:59;;;;;;;;;;;;;;;9.83;66.51;97658.72;5051422;28;20402;-78
2023/11/07 02:17:47;;;;;;;;;;;;;;;9.95;65.92;97657.00;5048006;28;19924;-78
2023/11/07 02:20:38;;;;;;;;;;;;;;;9.87;66.13;97662.41;5052232;28;19940;-78
2023/11/07 02:23:32;;;;;;;;;;;;;;;9.96;66.05;97664.06;5054233;28;19990;-78
2023/11/07 02:26:21;;;;;;;;;;;;;;;9.91;66.09;97666.91;5072982;28;19933;-79
2023/11/07 02:29:11;;;;;;;;;;;;;;;10.04;65.72;97664.41;5056266;28;20399;-80
2023/11/07 02:32:00;;;;;;;;;;;;;;;9.95;65.80;97657.00;5055325;28;19931;-78
2023/11/07 02:34:48;;;;;;;;;;;;;;;9.97;65.70;97654.81;5056008;28;19986;-78
2023/11/07 02:37:37;;;;;;;;;;;;;;;9.84;66.04;97649.47;5049854;28;19925;-78
2023/11/07 02:40:27;;;;;;;;;;;;;;;9.72;66.15;97658.19;5051696;28;19928;-79
2023/11/07 02:43:15;;;;;;;;;;;;;;;9.89;65.82;97658.25;5050849;28;19924;-77
2023/11/07 02:46:04;;;;;;;;;;;;;;;9.90;65.93;97654.44;5049272;28;19925;-78
2023/11/07 02:48:52;;;;;;;;;;;;;;;9.84;66.02;97650.25;5050072;28;19997;-78
2023/11/07 02:51:40;;;;;;;;;;;;;;;9.89;66.04;97646.63;5057849;28;19924;-78
2023/11/07 02:54:28;;;;;;;;;;;;;;;9.80;66.12;97640.34;5059045;28;19924;-78
2023/11/07 02:57:18;;;;;;;;;;;;;;;9.76;66.47;97642.09;5054881;28;19929;-78
2023/11/07 03:00:09;;;;;;;;;;;;;;;9.72;66.47;97647.34;5042444;28;19940;-77
2023/11/07 03:02:59;;;;;;;;;;;;;;;9.72;66.53;97650.06;5054228;28;19931;-78
2023/11/07 03:05:48;;;;;;;;;;;;;;;9.56;66.63;97646.16;5057401;28;19971;-78
2023/11/07 03:08:36;;;;;;;;;;;;;;;9.60;66.82;97644.41;5046115;28;20339;-77
2023/11/07 03:11:25;;;;;;;;;;;;;;;9.67;66.64;97650.19;5049160;28;19932;-78
2023/11/07 03:14:14;;;;;;;;;;;;;;;9.48;67.13;97647.72;5054940;28;20022;-78
2023/11/07 03:17:03;;;;;;;;;;;;;;;9.42;67.30;97648.94;5054061;28;19932;-78
2023/11/07 03:19:53;;;;;;;;;;;;;;;9.48;67.35;97639.56;5059721;28;19929;-78
2023/11/07 03:22:42;;;;;;;;;;;;;;;9.52;67.06;97637.81;5057652;28;20376;-78
2023/11/07 03:25:31;;;;;;;;;;;;;;;9.51;67.01;97636.22;5046261;28;20395;-78
2023/11/07 03:28:20;;;;;;;;;;;;;;;9.15;68.14;97637.09;5058970;28;19955;-78
2023/11/07 03:31:09;;;;;;;;;;;;;;;9.39;67.36;97658.50;5046100;28;19933;-78
2023/11/07 03:33:58;;;;;;;;;;;;;;;9.31;67.78;97648.38;5059716;28;19931;-77
2023/11/07 03:36:46;;;;;;;;;;;;;;;9.38;67.67;97643.34;5051243;28;19972;-78
2023/11/07 03:39:35;;;;;;;;;;;;;;;9.26;67.89;97645.78;5053215;28;20296;-78
2023/11/07 03:42:23;;;;;;;;;;;;;;;9.37;67.44;97651.75;5054657;28;19925;-77
2023/11/07 03:45:11;;;;;;;;;;;;;;;9.16;68.09;97654.16;5056339;28;19929;-78
2023/11/07 03:48:01;;;;;;;;;;;;;;;9.34;67.54;97652.41;5057104;28;19925;-78
2023/11/07 03:50:53;;;;;;;;;;;;;;;9.16;68.23;97651.47;5071244;28;20356;-77
2023/11/07 03:53:41;;;;;;;;;;;;;;;9.25;67.75;97655.03;5054312;28;19974;-78
2023/11/07 03:56:30;;;;;;;;;;;;;;;9.36;67.29;97661.00;5057263;28;19971;-78
2023/11/07 03:59:19;;;;;;;;;;;;;;;9.34;67.26;97664.03;5051967;28;19931;-78
2023/11/07 04:02:07;;;;;;;;;;;;;;;9.15;67.96;97671.53;5067299;28;19958;-78
2023/11/07 04:04:59;;;;;;;;;;;;;;;9.18;68.15;97665.53;5057347;28;19931;-78
2023/11/07 04:07:47;;;;;;;;;;;;;;;9.13;68.21;97669.16;5056326;28;19936;-78
2023/11/07 04:10:35;;;;;;;;;;;;;;;9.45;66.99;97665.38;5051386;28;19931;-78
2023/11/07 04:13:23;;;;;;;;;;;;;;;9.43;66.98;97667.63;5048122;28;19924;-78
2023/11/07 04:16:12;;;;;;;;;;;;;;;9.29;67.29;97666.88;5051017;28;19967;-78
2023/11/07 04:19:01;;;;;;;;;;;;;;;9.21;67.54;97667.59;5066840;28;20318;-79
2023/11/07 04:21:52;;;;;;;;;;;;;;;9.33;66.86;97667.06;5046596;28;19937;-78
2023/11/07 04:24:40;;;;;;;;;;;;;;;9.32;66.71;97666.28;5054206;28;20011;-79
2023/11/07 04:27:28;;;;;;;;;;;;;;;9.48;66.40;97669.41;5038553;28;19932;-79
2023/11/07 04:30:17;;;;;;;;;;;;;;;9.08;67.33;97671.97;5037619;28;19955;-78
2023/11/07 04:33:06;;;;;;;;;;;;;;;9.12;67.64;97658.63;5049070;28;19944;-78
2023/11/07 04:35:55;;;;;;;;;;;;;;;9.34;66.59;97645.06;5051379;28;20339;-79
2023/11/07 04:38:45;;;;;;;;;;;;;;;9.38;66.38;97661.53;5044813;28;19948;-78
2023/11/07 04:41:33;;;;;;;;;;;;;;;9.38;66.14;97659.59;5058759;28;19925;-79
2023/11/07 04:44:22;;;;;;;;;;;;;;;9.36;66.03;97667.22;5059920;28;19932;-78
2023/11/07 04:47:10;;;;;;;;;;;;;;;9.23;66.83;97667.31;5053821;28;20154;-77
2023/11/07 04:49:59;;;;;;;;;;;;;;;9.38;66.10;97664.22;5044540;28;19929;-78
2023/11/07 04:52:47;;;;;;;;;;;;;;;9.24;66.78;97658.06;5041776;28;19924;-77
2023/11/07 04:55:37;;;;;;;;;;;;;;;9.24;66.26;97664.28;5052270;28;19931;-78
2023/11/07 04:58:25;;;;;;;;;;;;;;;9.18;66.41;97657.38;5053689;28;19925;-77
2023/11/07 05:01:15;;;;;;;;;;;;;;;9.15;66.58;97671.53;5044366;28;20015;-77
2023/11/07 05:04:02;;;;;;;;;;;;;;;8.91;67.17;97664.53;5058638;28;19948;-78
2023/11/07 05:06:51;;;;;;;;;;;;;;;9.10;66.75;97669.75;5057483;28;19925;-78
2023/11/07 05:09:39;;;;;;;;;;;;;;;9.22;66.54;97663.81;5044208;28;19932;-78
2023/11/07 05:12:29;;;;;;;;;;;;;;;9.30;66.13;97671.19;5047159;28;19972;-79
2023/11/07 05:15:20;;;;;;;;;;;;;;;9.44;65.60;97668.41;5046601;28;19925;-77
2023/11/07 05:18:08;;;;;;;;;;;;;;;9.61;64.92;97673.13;5036596;28;19925;-78
2023/11/07 05:20:56;;;;;;;;;;;;;;;9.70;64.30;97671.28;5045216;28;20002;-78
2023/11/07 05:23:45;;;;;;;;;;;;;;;9.63;64.65;97676.31;5052819;28;19948;-77
2023/11/07 05:26:33;;;;;;;;;;;;;;;9.67;64.83;97677.31;5046195;28;19932;-78
2023/11/07 05:29:22;;;;;;;;;;;;;;;9.82;64.01;97673.41;5058595;28;19976;-78
2023/11/07 05:32:11;;;;;;;;;;;;;;;9.65;64.36;97676.84;5057969;28;20296;-78
2023/11/07 05:34:59;;;;;;;;;;;;;;;9.52;64.81;97670.34;5045323;28;19933;-78
2023/11/07 05:37:47;;;;;;;;;;;;;;;9.62;64.53;97670.09;5058100;28;19924;-78
2023/11/07 05:40:36;;;;;;;;;;;;;;;9.82;64.06;97676.91;5076204;28;20364;-78
2023/11/07 05:43:25;;;;;;;;;;;;;;;9.62;63.91;97674.72;5067099;28;19932;-78
2023/11/07 05:46:18;;;;;;;;;;;;;;;9.73;64.00;97678.78;5051980;28;20388;-78
2023/11/07 05:49:07;;;;;;;;;;;;;;;9.60;64.25;97680.47;5049413;28;19931;-77
2023/11/07 05:51:56;;;;;;;;;;;;;;;9.58;64.65;97676.44;5050938;28;20402;-78
2023/11/07 05:54:44;;;;;;;;;;;;;;;9.21;65.42;97678.44;5056742;28;19925;-79
2023/11/07 05:57:32;;;;;;;;;;;;;;;9.12;65.93;97678.41;5062859;28;20013;-78
2023/11/07 06:00:20;;;;;;;;;;;;;;;9.22;65.85;97671.94;5041709;28;20307;-81
2023/11/07 06:03:11;;;;;;;;;;;;;;;8.95;66.43;97672.84;5046213;28;20300;-78
2023/11/07 06:06:03;;;;;;;;;;;;;;;9.19;65.71;97677.97;5046745;28;19925;-78
2023/11/07 06:08:53;;;;;;;;;;;;;;;8.76;66.87;97683.81;5046821;28;19925;-77
2023/11/07 06:11:42;;;;;;;;;;;;;;;8.80;67.26;97692.16;5044608;28;20388;-78
2023/11/07 06:14:30;;;;;;;;;;;;;;;8.92;66.41;97679.66;5044624;28;20261;-78
2023/11/07 06:17:18;;;;;;;;;;;;;;;9.27;65.83;97695.38;5046515;28;20038;-77
2023/11/07 06:20:09;;;;;;;;;;;;;;;9.18;65.88;97687.22;5047826;28;19932;-78
2023/11/07 06:22:58;;;;;;;;;;;;;;;9.33;65.32;97691.47;5041565;28;19939;-77
2023/11/07 06:25:47;;;;;;;;;;;;;;;9.06;66.00;97695.09;5049157;28;20323;-77
2023/11/07 06:28:36;;;;;;;;;;;;;;;9.21;65.91;97691.19;5056666;28;19928;-78
2023/11/07 06:31:26;;;;;;;;;;;;;;;9.22;65.67;97692.81;5050170;28;20051;-78
2023/11/07 06:34:15;;;;;;;;;;;;;;;8.81;67.03;97693.75;5055688;28;19925;-80
2023/11/07 06:37:05;;;;;;;;;;;;;;;9.07;66.71;97697.47;5038359;28;19925;-77
2023/11/07 06:39:53;;;;;;;;;;;;;;;8.88;66.93;97705.75;5046141;28;20417;-79
2023/11/07 06:42:41;;;;;;;;;;;;;;;9.06;66.38;97700.50;5049497;28;20312;-78
2023/11/07 06:45:30;;;;;;;;;;;;;;;8.94;66.72;97703.72;5064931;28;19929;-78
2023/11/07 06:48:20;;;;;;;;;;;;;;;9.11;66.42;97700.41;5035597;28;20075;-78
2023/11/07 06:51:10;;;;;;;;;;;;;;;9.18;66.17;97700.75;5046199;28;20070;-79
2023/11/07 06:54:04;;;;;;;;;;;;;;;9.18;65.91;97700.75;5040305;28;19929;-81
2023/11/07 06:56:52;;;;;;;;;;;;;;;9.24;65.91;97715.00;5047689;28;19925;-88
2023/11/07 06:59:41;;;;;;;;;;;;;;;9.36;65.79;97710.59;5063636;28;19931;-88
2023/11/07 07:02:29;;;;;;;;;;;;;;;9.37;65.16;97706.78;5058020;28;19932;-81
2023/11/07 07:05:19;;;;;;;;;;;;;;;8.90;66.88;97698.16;5050995;28;19932;-79
2023/11/07 07:08:08;;;;;;;;;;;;;;;9.39;65.65;97699.16;5059456;28;19952;-79
2023/11/07 07:10:58;;;;;;;;;;;;;;;9.45;65.15;97708.78;5039109;28;19935;-78
2023/11/07 07:13:46;;;;;;;;;;;;;;;9.31;65.76;97718.88;5048542;28;19972;-81
2023/11/07 07:16:34;;;;;;;;;;;;;;;9.22;66.55;97709.09;5044795;28;19932;-79
2023/11/07 07:19:24;;;;;;;;;;;;;;;9.20;65.86;97706.66;5049947;28;20132;-78
2023/11/07 07:22:14;;;;;;;;;;;;;;;9.22;66.41;97704.47;5062451;28;20055;-79
2023/11/07 07:25:05;;;;;;;;;;;;;;;9.22;66.50;97707.19;5033053;28;20495;-78
2023/11/07 07:27:55;;;;;;;;;;;;;;;9.36;65.87;97710.59;5059818;28;19931;-79
2023/11/07 07:30:45;;;;;;;;;;;;;;;9.32;65.84;97714.25;5042966;28;19924;-79
2023/11/07 07:33:34;;;;;;;;;;;;;;;9.38;65.52;97716.53;5051319;28;20019;-78
2023/11/07 07:36:23;;;;;;;;;;;;;;;9.32;65.65;97715.06;5060195;28;19931;-79
2023/11/07 07:39:27;;;;;;;;;;;;;;;9.21;66.25;97721.81;5056366;28;20025;-78
2023/11/07 07:42:18;;;;;;;;;;;;;;;9.40;65.84;97719.75;5042728;28;19925;-79
2023/11/07 07:45:08;;;;;;;;;;;;;;;9.47;65.66;97726.63;5043243;28;19997;-79
2023/11/07 07:47:57;;;;;;;;;;;;;;;9.45;66.03;97724.25;5056413;28;19985;-78
2023/11/07 07:50:46;;;;;;;;;;;;;;;9.28;66.82;97729.53;5048474;28;19925;-80
2023/11/07 07:53:35;;;;;;;;;;;;;;;9.53;66.32;97723.47;5045174;28;19925;-78
2023/11/07 07:56:25;;;;;;;;;;;;;;;9.52;66.11;97715.66;5057762;28;20363;-79
2023/11/07 07:59:15;;;;;;;;;;;;;;;9.51;65.94;97714.88;5044496;28;19936;-79
2023/11/07 08:02:06;;;;;;;;;;;;;;;9.73;65.49;97719.47;5042630;28;20021;-79
2023/11/07 08:04:56;;;;;;;;;;;;;;;9.66;66.21;97721.81;5045753;28;20027;-78
2023/11/07 08:07:48;;;;;;;;;;;;;;;9.74;65.63;97723.78;5053121;28;19944;-79
2023/11/07 08:10:37;;;;;;;;;;;;;;;9.69;66.13;97723.91;5066750;28;19925;-79
2023/11/07 08:13:26;;;;;;;;;;;;;;;9.93;65.48;97729.00;5053086;28;19933;-79
2023/11/07 08:16:14;;;;;;;;;;;;;;;10.00;65.55;97732.06;5048011;28;19925;-77
2023/11/07 08:19:04;;;;;;;;;;;;;;;10.12;64.27;97736.91;5056919;28;19931;-78
2023/11/07 08:21:53;;;;;;;;;;;;;;;10.07;64.90;97737.88;5062564;28;19924;-79
2023/11/07 08:24:41;;;;;;;;;;;;;;;10.08;64.46;97744.91;5058651;28;19929;-89
2023/11/07 08:27:30;;;;;;;;;;;;;;;10.09;64.64;97740.25;5049937;28;19947;-89
2023/11/07 08:30:22;;;;;;;;;;;;;;;10.17;64.89;97743.03;5056240;28;20001;-89
2023/11/07 08:33:12;;;;;;;;;;;;;;;10.13;65.19;97749.41;5050839;28;20347;-90
2023/11/07 08:36:02;;;;;;;;;;;;;;;10.26;64.90;97737.66;5050755;28;19982;-89
2023/11/07 08:38:50;;;;;;;;;;;;;;;10.36;65.09;97748.22;5063860;28;20023;-81
2023/11/07 08:41:39;;;;;;;;;;;;;;;10.40;64.21;97741.06;5050704;28;20533;-78
2023/11/07 08:44:27;;;;;;;;;;;;;;;10.43;63.81;97736.91;5044648;28;19947;-78
2023/11/07 08:47:15;;;;;;;;;;;;;;;10.55;64.29;97739.06;5049289;28;19929;-79
2023/11/07 08:50:07;;;;;;;;;;;;;;;10.48;64.00;97737.56;5045461;28;19933;-78
2023/11/07 08:52:57;;;;;;;;;;;;;;;10.58;64.33;97743.84;5043389;28;19925;-78
2023/11/07 08:55:49;;;;;;;;;;;;;;;10.71;63.19;97737.50;5052685;28;19931;-78
2023/11/07 08:58:37;;;;;;;;;;;;;;;10.78;62.57;97742.47;5045000;28;19989;-78
2023/11/07 09:01:25;;;;;;;;;;;;;;;10.78;62.97;97743.25;5049305;28;20517;-79
2023/11/07 09:04:17;;;;;;;;;;;;;;;10.84;62.32;97742.00;5052812;28;20151;-78
2023/11/07 09:07:06;;;;;;;;;;;;;;;10.78;62.23;97743.25;5052315;28;19979;-79
2023/11/07 09:09:57;;;;;;;;;;;;;;;10.92;62.44;97741.22;5048384;28;20015;-78
2023/11/07 09:12:45;;;;;;;;;;;;;;;11.02;61.62;97740.09;5073055;28;19936;-88
2023/11/07 09:15:34;;;;;;;;;;;;;;;10.86;62.37;97739.75;5040388;28;19940;-90
2023/11/07 09:18:22;;;;;;;;;;;;;;;10.77;61.42;97733.50;5053201;28;20423;-92
2023/11/07 09:21:10;;;;;;;;;;;;;;;10.97;61.33;97743.78;5545839;22;19925;-77
2023/11/07 09:23:59;;;;;;;;;;;;;;;10.98;61.60;97745.38;5069398;28;19939;-78
2023/11/07 09:26:49;;;;;;;;;;;;;;;11.27;60.54;97735.78;5061330;28;19924;-76
2023/11/07 09:29:37;;;;;;;;;;;;;;;11.28;59.50;97729.22;5066843;28;19925;-77
2023/11/07 09:32:26;;;;;;;;;;;;;;;11.69;59.43;97738.81;5065277;28;20249;-77
2023/11/07 09:35:14;;;;;;;;;;;;;;;11.53;58.02;97731.16;5064639;28;19950;-77
2023/11/07 09:38:03;;;;;;;;;;;;;;;11.84;58.30;97735.63;5063909;28;20292;-77
2023/11/07 09:40:51;;;;;;;;;;;;;;;11.83;58.33;97734.03;5059878;28;19929;-77
2023/11/07 09:43:40;;;;;;;;;;;;;;;11.83;58.43;97733.22;5066580;28;19924;-78
2023/11/07 09:46:28;;;;;;;;;;;;;;;11.90;57.73;97726.16;5063419;28;19935;-80
2023/11/07 09:49:17;;;;;;;;;;;;;;;11.87;58.02;97734.16;5068704;28;19924;-78
2023/11/07 09:52:06;;;;;;;;;;;;;;;11.71;56.89;97731.13;5068822;28;19976;-80
2023/11/07 09:54:56;;;;;;;;;;;;;;;11.70;56.80;97738.47;5066180;28;19994;-77
2023/11/07 09:57:47;;;;;;;;;;;;;;;11.86;57.50;97732.56;5064547;28;20255;-78
2023/11/07 10:00:37;;;;;;;;;;;;;;;11.93;57.06;97728.25;5074253;28;19947;-78
2023/11/07 10:03:26;;;;;;;;;;;;;;;12.10;56.75;97729.31;5066481;28;19924;-78
2023/11/07 10:06:17;;;;;;;;;;;;;;;11.99;56.44;97731.59;5071322;28;19963;-77
2023/11/07 10:09:05;;;;;;;;;;;;;;;12.04;56.35;97734.94;5055466;28;19924;-77
2023/11/07 10:11:56;;;;;;;;;;;;;;;11.96;56.35;97730.28;5064870;28;19932;-78
2023/11/07 10:14:44;;;;;;;;;;;;;;;11.85;55.77;97720.09;5065488;28;20033;-78
2023/11/07 10:17:33;;;;;;;;;;;;;;;12.02;55.90;97728.19;5060071;28;20392;-77
2023/11/07 10:20:21;;;;;;;;;;;;;;;11.95;55.43;97728.69;5069564;28;20425;-78
2023/11/07 10:23:11;;;;;;;;;;;;;;;12.00;55.24;97720.38;5084559;28;20046;-77
2023/11/07 10:26:00;;;;;;;;;;;;;;;12.21;55.36;97725.91;5071990;28;19932;-77
2023/11/07 10:28:48;;;;;;;;;;;;;;;12.09;55.43;97714.06;5083470;28;20025;-77
2023/11/07 10:31:36;;;;;;;;;;;;;;;12.05;55.62;97706.56;5083512;28;20369;-77
2023/11/07 10:34:26;;;;;;;;;;;;;;;11.92;55.25;97714.94;5071009;28;19931;-76
2023/11/07 10:37:15;;;;;;;;;;;;;;;11.95;55.67;97715.09;5081414;28;19924;-76
2023/11/07 10:40:05;;;;;;;;;;;;;;;11.97;55.81;97712.84;5082387;28;19932;-77
2023/11/07 10:42:52;;;;;;;;;;;;;;;11.98;55.90;97700.81;5083317;28;19966;-77
2023/11/07 10:45:41;;;;;;;;;;;;;;;11.98;55.43;97706.25;5082606;28;19928;-77
2023/11/07 10:48:30;;;;;;;;;;;;;;;12.06;55.76;97705.44;5083212;28;19924;-77
2023/11/07 10:51:19;;;;;;;;;;;;;;;11.91;55.73;97703.25;5086658;28;19924;-76
2023/11/07 10:54:08;;;;;;;;;;;;;;;11.92;56.14;97704.84;5088543;28;19924;-77
2023/11/07 10:56:56;;;;;;;;;;;;;;;12.01;56.53;97697.44;5085819;28;19939;-78
2023/11/07 10:59:46;;;;;;;;;;;;;;;11.94;56.57;97696.38;5085889;28;20322;-77
2023/11/07 11:02:34;;;;;;;;;;;;;;;11.84;57.56;97686.63;5083007;28;19924;-78
2023/11/07 11:05:24;;;;;;;;;;;;;;;11.95;56.90;97687.06;5087144;28;20370;-80
2023/11/07 11:08:16;;;;;;;;;;;;;;;12.12;56.27;97686.22;5081399;28;20042;-77
2023/11/07 11:11:05;;;;;;;;;;;;;;;12.21;56.39;97679.59;5087184;28;20331;-77
2023/11/07 11:13:54;;;;;;;;;;;;;;;12.28;56.05;97687.25;5083992;28;19930;-81
2023/11/07 11:16:43;;;;;;;;;;;;;;;12.06;55.73;97682.88;5070470;28;20360;-77
2023/11/07 11:19:33;;;;;;;;;;;;;;;12.03;55.52;97678.84;5081090;28;19924;-77
2023/11/07 11:22:25;;;;;;;;;;;;;;;11.89;55.10;97688.38;5083701;28;19931;-77
2023/11/07 11:25:17;;;;;;;;;;;;;;;11.89;55.04;97678.28;5082974;28;19930;-79
2023/11/07 11:28:06;;;;;;;;;;;;;;;12.05;55.47;97681.28;5078178;28;19925;-77
2023/11/07 11:30:54;;;;;;;;;;;;;;;12.10;54.68;97685.75;5088474;28;20053;-77
2023/11/07 11:33:43;;;;;;;;;;;;;;;11.87;54.91;97675.06;5086978;28;19999;-78
2023/11/07 11:36:36;;;;;;;;;;;;;;;11.98;54.61;97676.31;5087524;28;19924;-76
2023/11/07 11:39:43;;;;;;;;;;;;;;;12.18;54.97;97680.25;5085953;28;19932;-77
2023/11/07 11:42:42;;;;;;;;;;;;;;;12.31;54.70;97683.88;5084875;28;19924;-77
2023/11/07 11:45:34;;;;;;;;;;;;;;;12.30;54.23;97680.38;5079827;28;19936;-77
2023/11/07 11:48:52;;;;;;;;;;;;;;;12.43;55.36;97678.53;5082115;28;19932;-77
2023/11/07 11:51:46;;;;;;;;;;;;;;;12.34;54.70;97677.75;5083436;28;20413;-78
2023/11/07 11:54:51;;;;;;;;;;;;;;;12.30;54.77;97672.19;5087077;28;19947;-77
2023/11/07 11:57:58;;;;;;;;;;;;;;;12.31;54.97;97673.78;5085232;28;20012;-78
2023/11/07 12:00:48;;;;;;;;;;;;;;;12.25;54.64;97675.09;5086350;28;19932;-78
2023/11/07 12:03:37;;;;;;;;;;;;;;;12.18;54.05;97665.81;5091951;28;20014;-79
2023/11/07 12:06:25;;;;;;;;;;;;;;;12.02;55.12;97666.38;5089544;28;19924;-79
2023/11/07 12:09:28;;;;;;;;;;;;;;;12.06;54.73;97672.78;5082583;28;20382;-78
2023/11/07 12:12:17;;;;;;;;;;;;;;;11.98;55.56;97673.59;5088550;28;19973;-79
2023/11/07 12:15:06;;;;;;;;;;;;;;;12.11;55.97;97681.88;5090182;28;19924;-79
2023/11/07 12:17:58;;;;;;;;;;;;;;;12.03;55.05;97678.84;5090166;28;20012;-78
2023/11/07 12:20:48;;;;;;;;;;;;;;;11.93;54.91;97673.78;5085089;28;19924;-78
2023/11/07 12:23:36;;;;;;;;;;;;;;;11.90;55.09;97674.44;5090313;28;19946;-78
2023/11/07 12:26:40;;;;;;;;;;;;;;;12.00;55.17;97679.53;5077765;28;20080;-79
2023/11/07 12:29:28;;;;;;;;;;;;;;;12.13;54.01;97679.63;5084986;28;19927;-78
2023/11/07 12:32:20;;;;;;;;;;;;;;;11.95;54.51;97682.41;5089668;28;19927;-78
2023/11/07 12:35:21;;;;;;;;;;;;;;;12.00;54.30;97684.16;5086482;28;19924;-78
2023/11/07 12:38:10;;;;;;;;;;;;;;;11.88;54.71;97671.25;5088688;28;19924;-78
2023/11/07 12:41:00;;;;;;;;;;;;;;;11.98;54.99;97681.75;5089382;28;19924;-79
2023/11/07 12:43:48;;;;;;;;;;;;;;;12.03;54.01;97676.13;5083637;28;19946;-79
2023/11/07 12:46:36;;;;;;;;;;;;;;;12.12;54.20;97667.16;5081358;28;19928;-79
2023/11/07 12:49:24;;;;;;;;;;;;;;;11.94;54.05;97663.69;5089787;28;20026;-79
2023/11/07 12:52:16;;;;;;;;;;;;;;;11.78;54.09;97668.84;5088084;28;19927;-78
2023/11/07 12:55:16;;;;;;;;;;;;;;;11.81;54.42;97665.44;5084380;28;20330;-79
2023/11/07 12:58:05;;;;;;;;;;;;;;;11.86;54.45;97659.88;5083536;28;20050;-79
2023/11/07 13:00:56;;;;;;;;;;;;;;;11.87;54.41;97658.75;5085546;28;19932;-78
2023/11/07 13:03:44;;;;;;;;;;;;;;;11.92;54.97;97657.75;5082814;28;20017;-78
2023/11/07 13:06:32;;;;;;;;;;;;;;;11.83;54.51;97660.53;5090216;28;20065;-79
2023/11/07 13:09:25;;;;;;;;;;;;;;;11.71;54.45;97657.63;5078298;28;20282;-78
2023/11/07 13:12:16;;;;;;;;;;;;;;;11.81;54.59;97640.97;5089285;28;19930;-78
2023/11/07 13:15:05;;;;;;;;;;;;;;;11.72;55.27;97638.28;5070022;28;19928;-78
2023/11/07 13:17:57;;;;;;;;;;;;;;;11.70;55.17;97647.88;5087628;28;19930;-78
2023/11/07 13:20:46;;;;;;;;;;;;;;;11.86;54.88;97642.75;5087938;28;20025;-79
2023/11/07 13:23:38;;;;;;;;;;;;;;;11.93;54.63;97641.13;5085573;28;20382;-78
2023/11/07 13:26:28;;;;;;;;;;;;;;;11.90;54.85;97641.75;5082039;28;20373;-78
2023/11/07 13:29:17;;;;;;;;;;;;;;;12.10;54.12;97644.91;5090140;28;19938;-78
2023/11/07 13:32:06;;;;;;;;;;;;;;;12.15;54.33;97631.91;5089269;28;20016;-78
2023/11/07 13:34:55;;;;;;;;;;;;;;;12.10;53.32;97634.00;5084461;28;19924;-78
2023/11/07 13:37:43;;;;;;;;;;;;;;;12.09;53.28;97635.09;5086994;28;19928;-80
2023/11/07 13:40:31;;;;;;;;;;;;;;;12.27;53.80;97636.63;5088991;28;20385;-78
2023/11/07 13:43:21;;;;;;;;;;;;;;;12.37;53.71;97636.25;5079625;28;19924;-80
2023/11/07 13:46:09;;;;;;;;;;;;;;;12.36;53.01;97642.84;5086226;28;20301;-80
2023/11/07 13:49:01;;;;;;;;;;;;;;;12.26;53.03;97640.50;5090259;28;20004;-79
2023/11/07 13:51:50;;;;;;;;;;;;;;;12.43;53.49;97637.66;5082589;28;19953;-78
2023/11/07 13:54:39;;;;;;;;;;;;;;;12.41;52.37;97634.47;5087648;28;19924;-79
2023/11/07 13:57:33;;;;;;;;;;;;;;;12.37;52.92;97632.75;5084781;28;20066;-79
2023/11/07 14:00:23;;;;;;;;;;;;;;;12.47;52.55;97635.88;5078712;28;19948;-79
2023/11/07 14:03:13;;;;;;;;;;;;;;;12.35;53.40;97641.22;5084956;28;19948;-78
2023/11/07 14:06:01;;;;;;;;;;;;;;;12.28;53.32;97632.78;5080101;28;19931;-78
2023/11/07 14:08:49;;;;;;;;;;;;;;;12.21;53.00;97646.13;5089154;28;20436;-78
2023/11/07 14:11:37;;;;;;;;;;;;;;;12.21;53.25;97640.69;5070834;28;20305;-78
2023/11/07 14:14:25;;;;;;;;;;;;;;;11.95;53.82;97633.41;5087712;28;19939;-79
2023/11/07 14:17:15;;;;;;;;;;;;;;;11.92;54.78;97655.03;5071776;28;19928;-78
2023/11/07 14:20:06;;;;;;;;;;;;;;;11.66;60.48;97696.69;5085273;28;19978;-78
2023/11/07 14:22:54;;;;;;;;;;;;;;;11.41;64.79;97694.84;5069065;28;19931;-79
2023/11/07 14:25:43;;;;;;;;;;;;;;;10.82;66.37;97703.47;5087948;28;20045;-81
2023/11/07 14:28:31;;;;;;;;;;;;;;;10.39;67.84;97693.31;5085125;28;19947;-79
2023/11/07 14:31:25;;;;;;;;;;;;;;;10.39;69.02;97690.59;5087933;28;19928;-79
2023/11/07 14:34:15;;;;;;;;;;;;;;;10.44;68.63;97695.88;5075542;28;19928;-78
2023/11/07 14:37:03;;;;;;;;;;;;;;;10.40;69.44;97692.19;5080589;28;20396;-78
2023/11/07 14:39:52;;;;;;;;;;;;;;;10.42;70.25;97698.09;5084723;28;19924;-80
2023/11/07 14:42:41;;;;;;;;;;;;;;;10.38;69.54;97694.41;5087280;28;20061;-78
2023/11/07 14:45:32;;;;;;;;;;;;;;;10.47;69.80;97692.50;5080362;28;19928;-79
2023/11/07 14:48:21;;;;;;;;;;;;;;;10.50;70.00;97693.81;5088911;28;20293;-79
2023/11/07 14:51:11;;;;;;;;;;;;;;;10.42;70.69;97695.38;5084544;28;20117;-78